Time;durP1;ratioP1;P1;durP2;ratioP2;P2;SDS_P1;SDS_P2;PMS_P1;PMS_P2;Temp;Humidity;BMP_temperature;BMP_pressure;BME280_temperature;BME280_humidity;BME280_pressure;Samples;Min_cycle;Max_cycle;Signal;HPM_P1;HPM_P2
2022/04/24 00:00:39;;;;;;;;;15.50;13.75;;;;;14.59;100.00;99442.66;6216043;22;45432;-83
2022/04/24 00:03:05;;;;;;;;;16.75;15.50;;;;;14.60;100.00;99441.66;6216775;22;45353;-83
2022/04/24 00:05:30;;;;;;;;;18.75;16.00;;;;;14.60;100.00;99434.50;6192353;22;45295;-84
2022/04/24 00:07:56;;;;;;;;;18.25;16.00;;;;;14.63;100.00;99441.34;6189354;22;45537;-83
2022/04/24 00:10:21;;;;;;;;;19.00;16.50;;;;;14.65;100.00;99439.38;6215526;22;45102;-83
2022/04/24 00:12:48;;;;;;;;;19.25;17.75;;;;;14.58;100.00;99438.31;6185610;22;45396;-83
2022/04/24 00:15:14;;;;;;;;;18.25;14.75;;;;;14.52;100.00;99433.63;6214255;22;45254;-84
2022/04/24 00:17:40;;;;;;;;;18.50;15.75;;;;;14.48;100.00;99438.44;6213852;22;44801;-82
2022/04/24 00:20:06;;;;;;;;;12.50;12.50;;;;;14.47;100.00;99438.56;6187046;22;46117;-84
2022/04/24 00:22:31;;;;;;;;;20.50;17.75;;;;;14.40;100.00;99435.69;6188409;22;45300;-83
2022/04/24 00:24:56;;;;;;;;;14.50;12.75;;;;;14.35;100.00;99441.50;6220342;22;44757;-82
2022/04/24 00:27:22;;;;;;;;;20.75;16.50;;;;;14.29;100.00;99433.28;6222500;22;45252;-81
2022/04/24 00:29:47;;;;;;;;;12.75;12.00;;;;;14.22;100.00;99434.94;6221610;22;45028;-82
2022/04/24 00:32:13;;;;;;;;;15.00;15.00;;;;;14.17;100.00;99438.09;6219410;22;44726;-82
2022/04/24 00:34:38;;;;;;;;;20.00;15.50;;;;;14.13;100.00;99429.53;6214022;22;44694;-84
2022/04/24 00:37:04;;;;;;;;;17.75;17.75;;;;;14.07;100.00;99422.16;6214085;22;45163;-84
2022/04/24 00:39:30;;;;;;;;;21.50;18.25;;;;;14.04;100.00;99427.81;6213063;22;45011;-83
2022/04/24 00:41:55;;;;;;;;;22.25;19.00;;;;;13.97;100.00;99423.22;6186917;22;45158;-83
2022/04/24 00:44:21;;;;;;;;;17.50;14.25;;;;;13.95;100.00;99419.91;6213587;22;45259;-84
2022/04/24 00:47:15;;;;;;;;;25.50;20.00;;;;;13.91;100.00;99418.53;6214176;22;45509;-83
2022/04/24 00:49:41;;;;;;;;;25.50;20.25;;;;;13.87;100.00;99424.16;6213708;22;45176;-83
2022/04/24 00:52:07;;;;;;;;;18.50;18.50;;;;;13.81;100.00;99423.97;6220015;22;44672;-84
2022/04/24 00:54:33;;;;;;;;;24.25;21.75;;;;;13.80;100.00;99422.31;6195651;22;45300;-83
2022/04/24 00:56:58;;;;;;;;;29.00;26.25;;;;;13.75;100.00;99428.09;6225028;22;45165;-83
2022/04/24 00:59:24;;;;;;;;;30.00;25.25;;;;;13.68;100.00;99431.53;6193718;22;46193;-83
2022/04/24 01:01:49;;;;;;;;;21.75;21.75;;;;;13.65;100.00;99432.69;6214883;22;44753;-83
2022/04/24 01:04:16;;;;;;;;;27.50;27.50;;;;;13.60;100.00;99446.50;6215214;22;44785;-84
2022/04/24 01:06:42;;;;;;;;;30.67;28.67;;;;;13.54;100.00;99444.44;6186307;22;45242;-82
2022/04/24 01:09:18;;;;;;;;;63.67;51.67;;;;;13.46;100.00;99436.38;6185355;22;46677;-82
2022/04/24 01:11:49;;;;;;;;;41.67;38.67;;;;;13.46;100.00;99443.53;6185511;22;45340;-83
2022/04/24 01:14:16;;;;;;;;;52.00;41.67;;;;;13.37;100.00;99454.13;6213414;22;44705;-82
2022/04/24 01:16:43;;;;;;;;;47.33;41.00;;;;;13.30;100.00;99446.91;6213556;22;45168;-82
2022/04/24 01:19:09;;;;;;;;;38.67;32.33;;;;;13.23;100.00;99454.66;6186774;22;46197;-83
2022/04/24 01:21:35;;;;;;;;;35.67;32.67;;;;;13.17;100.00;99449.91;6215401;22;44802;-83
2022/04/24 01:24:04;;;;;;;;;51.67;40.33;;;;;13.11;100.00;99454.00;6190673;22;45512;-83
2022/04/24 01:26:30;;;;;;;;;43.00;37.67;;;;;13.06;100.00;99455.44;6197078;22;45517;-81
2022/04/24 01:28:55;;;;;;;;;44.67;38.00;;;;;13.04;100.00;99449.41;6201703;22;45359;-81
2022/04/24 01:31:20;;;;;;;;;33.67;30.67;;;;;12.99;100.00;99459.69;6227325;22;44737;-83
2022/04/24 01:33:46;;;;;;;;;27.00;25.33;;;;;12.95;100.00;99463.63;6227541;22;44971;-83
2022/04/24 01:36:11;;;;;;;;;27.25;27.25;;;;;12.90;100.00;99465.91;6196238;22;44834;-84
2022/04/24 01:38:37;;;;;;;;;25.50;24.50;;;;;12.90;100.00;99471.25;6199531;22;46722;-84
2022/04/24 01:41:02;;;;;;;;;34.00;30.00;;;;;12.86;100.00;99468.91;6220016;22;44652;-84
2022/04/24 01:43:28;;;;;;;;;30.33;30.33;;;;;12.84;100.00;99478.00;6195859;22;45200;-81
2022/04/24 01:45:54;;;;;;;;;24.67;24.67;;;;;12.83;100.00;99476.34;6195866;22;44803;-84
2022/04/24 01:48:20;;;;;;;;;25.33;25.33;;;;;12.79;100.00;99473.13;6220897;22;45179;-82
2022/04/24 01:50:45;;;;;;;;;36.00;29.67;;;;;12.80;100.00;99477.47;6221112;22;45161;-83
2022/04/24 01:53:11;;;;;;;;;28.67;25.00;;;;;12.79;100.00;99482.94;6221572;22;44664;-84
2022/04/24 01:55:36;;;;;;;;;31.67;28.00;;;;;12.79;100.00;99480.28;6193175;22;45357;-85
2022/04/24 01:58:02;;;;;;;;;27.67;25.67;;;;;12.78;100.00;99486.59;6218810;22;45285;-83
2022/04/24 02:00:29;;;;;;;;;25.00;24.25;;;;;12.76;100.00;99484.06;6216176;22;45335;-83
2022/04/24 02:02:55;;;;;;;;;22.50;22.50;;;;;12.73;100.00;99481.72;6213860;22;45141;-82
2022/04/24 02:05:21;;;;;;;;;27.67;23.33;;;;;12.72;100.00;99490.69;6186500;22;45019;-83
2022/04/24 02:07:46;;;;;;;;;20.75;20.75;;;;;12.72;100.00;99487.19;6214009;22;45296;-83
2022/04/24 02:10:12;;;;;;;;;24.67;22.67;;;;;12.70;100.00;99486.50;6188049;22;45276;-84
2022/04/24 02:12:40;;;;;;;;;25.00;21.00;;;;;12.66;100.00;99482.44;6215807;22;44646;-84
2022/04/24 02:15:08;;;;;;;;;21.00;21.00;;;;;12.65;100.00;99486.09;6218018;22;44670;-85
2022/04/24 02:17:34;;;;;;;;;25.75;21.75;;;;;12.64;100.00;99495.06;6218884;22;45346;-84
2022/04/24 02:20:00;;;;;;;;;27.25;23.25;;;;;12.62;100.00;99495.22;6191537;22;44872;-85
2022/04/24 02:22:34;;;;;;;;;18.50;18.50;;;;;12.61;100.00;99496.19;6192609;22;45198;-84
2022/04/24 02:25:01;;;;;;;;;22.25;18.75;;;;;12.57;100.00;99502.78;6216631;22;44791;-85
2022/04/24 02:27:27;;;;;;;;;26.67;21.33;;;;;12.58;100.00;99496.50;6190548;22;45492;-85
2022/04/24 02:29:52;;;;;;;;;27.00;23.33;;;;;12.55;100.00;99499.44;6192183;22;44748;-85
2022/04/24 02:32:18;;;;;;;;;21.00;20.00;;;;;12.56;100.00;99501.97;6198185;22;44628;-85
2022/04/24 02:34:43;;;;;;;;;29.75;24.00;;;;;12.55;100.00;99500.28;6227169;22;44756;-84
2022/04/24 02:37:09;;;;;;;;;18.33;18.00;;;;;12.54;100.00;99501.28;6220438;22;45244;-84
2022/04/24 02:39:35;;;;;;;;;17.00;17.00;;;;;12.53;100.00;99504.94;6218306;22;45222;-84
2022/04/24 02:42:01;;;;;;;;;23.33;22.67;;;;;12.50;100.00;99510.53;6215918;22;44781;-85
2022/04/24 02:44:27;;;;;;;;;23.25;18.00;;;;;12.49;100.00;99502.72;6216102;22;44801;-83
2022/04/24 02:46:52;;;;;;;;;23.75;22.00;;;;;12.45;100.00;99504.81;6216106;22;45560;-85
2022/04/24 02:49:18;;;;;;;;;21.67;21.00;;;;;12.45;100.00;99503.97;6190903;22;45365;-84
2022/04/24 02:51:43;;;;;;;;;21.67;15.67;;;;;12.43;100.00;99509.47;6191703;22;45268;-84
2022/04/24 02:54:09;;;;;;;;;27.00;26.00;;;;;12.43;100.00;99517.44;6215962;22;44832;-84
2022/04/24 02:56:34;;;;;;;;;22.67;21.00;;;;;12.40;100.00;99517.72;6221172;22;45248;-84
2022/04/24 02:59:00;;;;;;;;;26.00;25.00;;;;;12.38;100.00;99516.19;6196807;22;44760;-84
2022/04/24 03:01:25;;;;;;;;;26.00;25.33;;;;;12.36;100.00;99513.66;6228212;22;44726;-84
2022/04/24 03:03:51;;;;;;;;;21.00;20.25;;;;;12.32;100.00;99515.78;6205220;22;44970;-84
2022/04/24 03:06:17;;;;;;;;;22.00;20.25;;;;;12.33;100.00;99522.81;6226544;22;45327;-84
2022/04/24 03:08:42;;;;;;;;;27.67;24.33;;;;;12.33;100.00;99519.31;6225237;22;45163;-84
2022/04/24 03:11:08;;;;;;;;;24.00;24.00;;;;;12.31;100.00;99518.59;6215504;22;45258;-84
2022/04/24 03:13:33;;;;;;;;;25.00;21.00;;;;;12.29;100.00;99518.75;6216758;22;44620;-84
2022/04/24 03:15:59;;;;;;;;;18.33;18.33;;;;;12.27;100.00;99526.00;6193833;22;46523;-84
2022/04/24 03:18:24;;;;;;;;;20.00;19.67;;;;;12.23;100.00;99519.31;6196453;22;45205;-84
2022/04/24 03:20:49;;;;;;;;;23.33;21.67;;;;;12.19;100.00;99522.41;6221754;22;44651;-83
2022/04/24 03:23:15;;;;;;;;;24.25;19.50;;;;;12.20;100.00;99521.44;6217489;22;45081;-84
2022/04/24 03:25:40;;;;;;;;;26.67;23.67;;;;;12.20;100.00;99534.75;6187761;22;45267;-84
2022/04/24 03:28:08;;;;;;;;;26.33;23.33;;;;;12.23;100.00;99529.09;6213969;22;44828;-85
2022/04/24 03:30:34;;;;;;;;;26.00;22.33;;;;;12.24;100.00;99533.47;6188529;22;45254;-84
2022/04/24 03:33:00;;;;;;;;;13.25;13.25;;;;;12.25;100.00;99535.16;6215819;22;45541;-84
2022/04/24 03:35:26;;;;;;;;;24.67;24.00;;;;;12.25;100.00;99530.66;6216527;22;45051;-84
2022/04/24 03:37:51;;;;;;;;;24.00;22.25;;;;;12.26;100.00;99531.50;6194424;22;45141;-85
2022/04/24 03:40:17;;;;;;;;;23.00;20.25;;;;;12.24;100.00;99542.28;6223379;22;45451;-84
2022/04/24 03:42:42;;;;;;;;;34.33;30.00;;;;;12.26;100.00;99540.31;6222234;22;44730;-84
2022/04/24 03:45:11;;;;;;;;;25.25;25.25;;;;;12.30;100.00;99544.38;6191017;22;47498;-84
2022/04/24 03:47:36;;;;;;;;;23.75;20.50;;;;;12.26;100.00;99542.16;6194312;22;45533;-85
2022/04/24 03:50:03;;;;;;;;;21.00;21.00;;;;;12.26;100.00;99542.97;6215161;22;45206;-84
2022/04/24 03:52:28;;;;;;;;;26.00;24.33;;;;;12.22;100.00;99543.41;6216604;22;45283;-84
2022/04/24 03:54:54;;;;;;;;;22.67;22.33;;;;;12.19;100.00;99549.03;6188801;22;45044;-85
2022/04/24 03:57:19;;;;;;;;;27.67;25.67;;;;;12.15;100.00;99540.47;6217053;22;45178;-84
2022/04/24 03:59:45;;;;;;;;;24.25;23.00;;;;;12.15;100.00;99550.31;6218040;22;45393;-83
2022/04/24 04:02:10;;;;;;;;;24.50;22.00;;;;;12.12;100.00;99545.25;6189629;22;44793;-84
2022/04/24 04:04:35;;;;;;;;;23.00;23.00;;;;;12.13;100.00;99549.59;6189415;22;45165;-85
2022/04/24 04:07:01;;;;;;;;;33.00;29.00;;;;;12.12;100.00;99556.72;6189246;22;45258;-84
2022/04/24 04:09:26;;;;;;;;;23.67;23.67;;;;;12.11;100.00;99548.91;6189367;22;45174;-83
2022/04/24 04:11:52;;;;;;;;;26.67;26.00;;;;;12.12;100.00;99551.41;6192111;22;44880;-84
2022/04/24 04:14:18;;;;;;;;;22.67;22.67;;;;;12.09;100.00;99547.22;6220658;22;45079;-83
2022/04/24 04:16:44;;;;;;;;;23.67;22.00;;;;;12.10;100.00;99550.72;6192400;22;44725;-84
2022/04/24 04:19:09;;;;;;;;;26.33;24.67;;;;;12.07;100.00;99557.16;6222213;22;44625;-84
2022/04/24 04:21:34;;;;;;;;;26.00;23.00;;;;;12.05;100.00;99555.63;6225016;22;45201;-84
2022/04/24 04:24:00;;;;;;;;;25.00;24.00;;;;;12.05;100.00;99564.44;6224547;22;45378;-83
2022/04/24 04:26:26;;;;;;;;;26.33;24.67;;;;;12.03;100.00;99562.91;6220635;22;45110;-84
2022/04/24 04:28:54;;;;;;;;;22.00;22.00;;;;;12.00;100.00;99561.38;6215898;22;44754;-85
2022/04/24 04:31:20;;;;;;;;;22.00;22.00;;;;;11.96;100.00;99570.63;6216475;22;45348;-84
2022/04/24 04:33:45;;;;;;;;;26.00;24.25;;;;;11.89;100.00;99565.97;6218804;22;46342;-84
2022/04/24 04:36:11;;;;;;;;;22.33;22.33;;;;;11.86;100.00;99575.09;6220826;22;45185;-84
2022/04/24 04:38:37;;;;;;;;;31.00;30.00;;;;;11.80;100.00;99565.00;6194122;22;44704;-83
2022/04/24 04:41:04;;;;;;;;;30.67;30.00;;;;;11.81;100.00;99569.31;6194693;22;45470;-84
2022/04/24 04:43:30;;;;;;;;;27.67;24.00;;;;;11.78;100.00;99562.44;6197061;22;46982;-84
2022/04/24 04:45:56;;;;;;;;;23.00;21.00;;;;;11.78;100.00;99572.25;6222635;22;45560;-85
2022/04/24 04:48:21;;;;;;;;;24.33;24.33;;;;;11.79;100.00;99571.25;6217874;22;45342;-84
2022/04/24 04:50:47;;;;;;;;;22.67;22.00;;;;;11.77;100.00;99576.75;6189393;22;45346;-81
2022/04/24 04:53:12;;;;;;;;;27.00;24.67;;;;;11.76;100.00;99585.72;6216755;22;44959;-84
2022/04/24 04:55:38;;;;;;;;;29.33;28.00;;;;;11.76;100.00;99592.84;6220983;22;44753;-84
2022/04/24 04:58:03;;;;;;;;;28.33;28.33;;;;;11.72;100.00;99594.09;6218797;22;44766;-84
2022/04/24 05:00:29;;;;;;;;;29.67;28.67;;;;;11.77;100.00;99599.84;6220657;22;45577;-85
2022/04/24 05:02:55;;;;;;;;;25.67;25.67;;;;;11.73;100.00;99593.94;6215936;22;45299;-85
2022/04/24 05:05:20;;;;;;;;;33.33;27.33;;;;;11.74;100.00;99603.63;6187837;22;44913;-85
2022/04/24 05:07:46;;;;;;;;;32.00;30.00;;;;;11.78;100.00;99605.03;6216198;22;45332;-85
2022/04/24 05:10:11;;;;;;;;;35.00;30.33;;;;;11.86;100.00;99600.88;6215526;22;44770;-84
2022/04/24 05:12:37;;;;;;;;;26.33;25.33;;;;;11.91;100.00;99598.63;6214507;22;45331;-85
2022/04/24 05:15:05;;;;;;;;;27.67;27.00;;;;;11.93;100.00;99610.81;6215071;22;45207;-85
2022/04/24 05:17:30;;;;;;;;;20.00;19.00;;;;;11.98;100.00;99619.22;6215451;22;45168;-83
2022/04/24 05:19:57;;;;;;;;;28.67;27.33;;;;;12.02;100.00;99614.47;6188502;22;44965;-84
2022/04/24 05:22:23;;;;;;;;;25.67;25.33;;;;;12.05;100.00;99612.38;6215761;22;45283;-85
2022/04/24 05:24:49;;;;;;;;;24.67;23.33;;;;;12.15;100.00;99616.84;6188366;22;45374;-84
2022/04/24 05:27:14;;;;;;;;;32.33;26.00;;;;;12.23;100.00;99619.63;6217148;22;44608;-85
2022/04/24 05:29:40;;;;;;;;;28.33;26.33;;;;;12.28;100.00;99614.72;6220613;22;45370;-84
2022/04/24 05:32:06;;;;;;;;;25.33;23.33;;;;;12.35;100.00;99618.53;6195404;22;46527;-86
2022/04/24 05:34:31;;;;;;;;;25.33;24.33;;;;;12.46;100.00;99633.50;6200317;22;45349;-85
2022/04/24 05:36:57;;;;;;;;;32.67;29.33;;;;;12.53;100.00;99627.47;6203719;22;44654;-85
2022/04/24 05:39:22;;;;;;;;;31.33;31.00;;;;;12.60;100.00;99638.41;6200776;22;44850;-86
2022/04/24 05:41:48;;;;;;;;;28.00;24.67;;;;;12.68;100.00;99632.38;6226375;22;45384;-85
2022/04/24 05:44:13;;;;;;;;;24.75;19.75;;;;;12.79;100.00;99642.84;6200194;22;45151;-84
2022/04/24 05:46:38;;;;;;;;;26.75;25.00;;;;;12.76;100.00;99637.78;6228316;22;45334;-84
2022/04/24 05:49:04;;;;;;;;;30.75;30.25;;;;;12.80;100.00;99636.53;6205337;22;44916;-85
2022/04/24 05:51:29;;;;;;;;;21.25;21.25;;;;;12.91;100.00;99633.72;6206268;22;45091;-83
2022/04/24 05:53:55;;;;;;;;;23.75;22.50;;;;;13.08;100.00;99626.78;6234226;22;45346;-84
2022/04/24 05:56:21;;;;;;;;;25.00;23.50;;;;;13.16;100.00;99629.56;6205195;22;44831;-85
2022/04/24 05:58:46;;;;;;;;;29.75;25.50;;;;;13.28;100.00;99630.22;6215757;22;44942;-85
2022/04/24 06:01:12;;;;;;;;;22.50;20.50;;;;;13.35;100.00;99634.84;6189123;22;46953;-83
2022/04/24 06:03:40;;;;;;;;;25.50;24.00;;;;;13.50;100.00;99643.19;6219424;22;44772;-83
2022/04/24 06:06:06;;;;;;;;;25.00;20.50;;;;;13.63;100.00;99643.69;6224863;22;44750;-85
2022/04/24 06:08:31;;;;;;;;;29.75;22.25;;;;;13.74;100.00;99641.81;6217586;22;44911;-85
2022/04/24 06:10:57;;;;;;;;;25.00;23.25;;;;;13.76;100.00;99648.66;6219275;22;45324;-84
2022/04/24 06:13:22;;;;;;;;;23.50;21.50;;;;;13.83;100.00;99655.09;6191665;22;45114;-85
2022/04/24 06:15:48;;;;;;;;;28.75;25.25;;;;;13.60;100.00;99653.81;6190976;22;44689;-85
2022/04/24 06:18:13;;;;;;;;;24.25;23.00;;;;;13.57;100.00;99656.78;6216787;22;44837;-84
2022/04/24 06:20:39;;;;;;;;;21.75;21.75;;;;;13.69;100.00;99652.91;6189660;22;46490;-85
2022/04/24 06:23:04;;;;;;;;;30.50;29.00;;;;;13.65;100.00;99653.38;6189560;22;45146;-84
2022/04/24 06:25:34;;;;;;;;;21.25;20.50;;;;;13.71;100.00;99648.25;6189446;22;45183;-85
2022/04/24 06:28:01;;;;;;;;;20.75;19.25;;;;;13.61;100.00;99658.16;6190720;22;44757;-85
2022/04/24 06:30:28;;;;;;;;;33.50;26.50;;;;;13.62;100.00;99665.16;6216606;22;45139;-85
2022/04/24 06:32:54;;;;;;;;;32.75;29.25;;;;;13.66;100.00;99666.56;6192831;22;45381;-85
2022/04/24 06:35:20;;;;;;;;;31.25;27.25;;;;;13.85;100.00;99674.44;6221869;22;45320;-84
2022/04/24 06:37:47;;;;;;;;;30.75;29.50;;;;;13.89;100.00;99669.66;6190264;22;45222;-85
2022/04/24 06:40:15;;;;;;;;;34.67;31.00;;;;;13.90;100.00;99676.66;6165082;22;46681;-85
2022/04/24 06:42:55;;;;;;;;;36.33;31.00;;;;;13.94;100.00;99678.06;6216795;22;45356;-86
2022/04/24 06:45:25;;;;;;;;;23.25;21.50;;;;;14.12;100.00;99675.41;6190806;22;44796;-86
2022/04/24 06:47:58;;;;;;;;;31.50;28.00;;;;;14.13;100.00;99677.94;6193456;22;45324;-85
2022/04/24 06:50:25;;;;;;;;;34.75;31.00;;;;;14.13;100.00;99682.44;6223190;22;45180;-85
2022/04/24 06:53:02;;;;;;;;;25.00;18.75;;;;;14.10;100.00;99674.72;6196979;22;44773;-84
2022/04/24 06:55:31;;;;;;;;;29.25;28.50;;;;;14.00;100.00;99676.63;6226345;22;45390;-84
2022/04/24 06:57:57;;;;;;;;;41.00;32.67;;;;;13.89;100.00;99683.84;6196888;22;44969;-83
2022/04/24 07:00:24;;;;;;;;;30.50;25.50;;;;;14.00;100.00;99682.78;6231652;22;45091;-84
2022/04/24 07:02:50;;;;;;;;;28.75;27.00;;;;;14.11;100.00;99687.06;6207394;22;44671;-86
2022/04/24 07:05:19;;;;;;;;;34.67;32.00;;;;;14.09;100.00;99689.91;6225551;22;45387;-85
2022/04/24 07:07:44;;;;;;;;;37.67;34.67;;;;;14.16;100.00;99695.47;6219244;22;45295;-85
2022/04/24 07:10:11;;;;;;;;;30.67;26.00;;;;;14.11;100.00;99687.91;6217540;22;45339;-85
2022/04/24 07:12:47;;;;;;;;;31.25;29.25;;;;;14.12;100.00;99691.44;6189050;22;44727;-84
2022/04/24 07:15:13;;;;;;;;;36.00;31.00;;;;;14.23;100.00;99690.38;6189849;22;45222;-84
2022/04/24 07:17:40;;;;;;;;;39.33;36.67;;;;;14.28;100.00;99694.25;6217455;22;45251;-84
2022/04/24 07:20:07;;;;;;;;;35.00;33.67;;;;;14.28;100.00;99688.09;6221431;22;45599;-85
2022/04/24 07:22:47;;;;;;;;;40.00;35.00;;;;;14.30;100.00;99691.44;6198172;22;44736;-83
2022/04/24 07:25:18;;;;;;;;;29.00;23.33;;;;;14.42;100.00;99692.91;6198038;22;45247;-84
2022/04/24 07:27:44;;;;;;;;;35.33;33.67;;;;;14.39;100.00;99702.03;6195948;22;45207;-84
2022/04/24 07:30:13;;;;;;;;;35.67;34.00;;;;;14.58;100.00;99692.22;6223568;22;45014;-85
2022/04/24 07:32:45;;;;;;;;;41.33;35.33;;;;;14.73;100.00;99700.53;6198819;22;45159;-85
2022/04/24 07:35:15;;;;;;;;;39.67;35.67;;;;;14.77;100.00;99705.41;6190604;22;44752;-85
2022/04/24 07:37:42;;;;;;;;;37.67;35.67;;;;;14.72;100.00;99712.22;6215916;22;44939;-85
2022/04/24 07:40:10;;;;;;;;;33.67;30.67;;;;;14.56;100.00;99715.59;6190422;22;46016;-85
2022/04/24 07:43:08;;;;;;;;;41.67;38.00;;;;;14.40;100.00;99711.72;6219527;22;44750;-86
2022/04/24 07:45:43;;;;;;;;;40.00;34.67;;;;;14.54;100.00;99713.06;6193026;22;44762;-86
2022/04/24 07:48:11;;;;;;;;;42.33;30.67;;;;;14.69;100.00;99705.34;6218549;22;44780;-84
2022/04/24 07:50:41;;;;;;;;;49.00;40.00;;;;;14.77;100.00;99713.44;6190306;22;46821;-85
2022/04/24 07:53:07;;;;;;;;;41.33;37.00;;;;;14.76;100.00;99716.28;6219277;22;44634;-85
2022/04/24 07:55:33;;;;;;;;;42.33;36.33;;;;;14.87;100.00;99714.19;6196813;22;44671;-86
2022/04/24 07:58:00;;;;;;;;;46.00;36.33;;;;;14.96;100.00;99725.78;6200773;22;45360;-85
2022/04/24 08:00:28;;;;;;;;;46.33;38.33;;;;;14.90;100.00;99713.88;6202092;22;46517;-85
2022/04/24 08:03:01;;;;;;;;;46.33;37.00;;;;;15.03;100.00;99723.31;6221473;22;44715;-85
2022/04/24 08:05:39;;;;;;;;;28.67;27.67;;;;;15.17;100.00;99718.25;6220518;22;45238;-85
2022/04/24 08:08:06;;;;;;;;;40.00;31.67;;;;;15.31;100.00;99721.34;6190652;22;45271;-84
2022/04/24 08:10:35;;;;;;;;;36.00;32.33;;;;;15.41;100.00;99722.06;6189206;22;45395;-85
2022/04/24 08:13:04;;;;;;;;;47.67;42.00;;;;;15.46;100.00;99726.94;6190033;22;45241;-86
2022/04/24 08:15:30;;;;;;;;;48.67;34.67;;;;;15.53;100.00;99726.16;6189844;22;44637;-85
2022/04/24 08:17:55;;;;;;;;;46.67;38.33;;;;;15.57;100.00;99723.97;6218884;22;44768;-85
2022/04/24 08:20:21;;;;;;;;;47.00;40.33;;;;;15.40;100.00;99731.09;6218835;22;45044;-86
2022/04/24 08:22:51;;;;;;;;;38.33;31.67;;;;;15.34;100.00;99734.41;6219064;22;44880;-86
2022/04/24 08:25:20;;;;;;;;;49.67;42.00;;;;;15.23;100.00;99735.53;6220208;22;44801;-85
2022/04/24 08:27:49;;;;;;;;;42.33;36.33;;;;;15.08;100.00;99742.41;6193185;22;44894;-85
2022/04/24 08:30:16;;;;;;;;;47.67;38.33;;;;;15.01;100.00;99736.03;6199006;22;46617;-86
2022/04/24 08:32:42;;;;;;;;;51.33;40.33;;;;;14.89;100.00;99735.41;6192517;22;45463;-85
2022/04/24 08:35:10;;;;;;;;;35.67;33.67;;;;;14.85;100.00;99742.09;6193840;22;45177;-84
2022/04/24 08:37:36;;;;;;;;;49.00;39.00;;;;;15.05;100.00;99724.03;6192618;22;45201;-85
2022/04/24 08:40:05;;;;;;;;;53.00;41.33;;;;;15.03;100.00;99742.03;6218788;22;45136;-84
2022/04/24 08:42:31;;;;;;;;;39.33;35.33;;;;;15.19;100.00;99734.16;6163306;22;44731;-85
2022/04/24 08:44:56;;;;;;;;;37.67;35.67;;;;;15.32;100.00;99729.19;6187895;22;45316;-85
2022/04/24 08:47:25;;;;;;;;;40.67;36.67;;;;;15.58;100.00;99728.34;6187563;22;45246;-85
2022/04/24 08:49:58;;;;;;;;;43.00;35.33;;;;;15.62;100.00;99740.44;6188153;22;45802;-86
2022/04/24 08:52:25;;;;;;;;;48.67;40.00;;;;;15.43;100.00;99741.50;6217240;22;44568;-86
2022/04/24 08:54:52;;;;;;;;;45.67;37.33;;;;;15.67;100.00;99740.81;6219474;22;45172;-85
2022/04/24 08:57:18;;;;;;;;;43.00;36.33;;;;;15.73;100.00;99742.84;6224505;22;44769;-85
2022/04/24 08:59:46;;;;;;;;;53.33;43.00;;;;;15.70;100.00;99763.75;6225128;22;45369;-85
2022/04/24 09:02:12;;;;;;;;;53.67;40.33;;;;;15.66;100.00;99742.66;6224119;22;45162;-84
2022/04/24 09:04:39;;;;;;;;;47.67;37.00;;;;;15.75;100.00;99748.03;6196377;22;45212;-83
2022/04/24 09:07:08;;;;;;;;;55.00;43.00;;;;;15.90;100.00;99751.78;6190433;22;45387;-86
2022/04/24 09:09:44;;;;;;;;;36.00;34.33;;;;;16.09;100.00;99751.53;6188986;22;47077;-85
2022/04/24 09:12:17;;;;;;;;;45.33;38.00;;;;;15.94;100.00;99759.34;6214881;22;44663;-86
2022/04/24 09:14:50;;;;;;;;;48.33;39.00;;;;;15.78;100.00;99753.91;6188356;22;44709;-86
2022/04/24 09:17:19;;;;;;;;;40.33;36.00;;;;;15.61;100.00;99757.47;6214486;22;45329;-86
2022/04/24 09:19:44;;;;;;;;;31.33;26.33;;;;;15.82;100.00;99754.44;6214728;22;44912;-87
2022/04/24 09:22:10;;;;;;;;;48.33;37.00;;;;;16.06;100.00;99759.06;6215120;22;45213;-86
2022/04/24 09:24:41;;;;;;;;;43.33;36.33;;;;;16.07;100.00;99758.06;6216901;22;45338;-86
2022/04/24 09:27:07;;;;;;;;;39.33;34.00;;;;;16.12;100.00;99759.25;6217836;22;44964;-86
2022/04/24 09:29:32;;;;;;;;;46.67;40.67;;;;;16.30;100.00;99759.13;6217839;22;45157;-87
2022/04/24 09:31:58;;;;;;;;;38.33;35.00;;;;;16.64;100.00;99764.41;6219565;22;44637;-85
2022/04/24 09:34:32;;;;;;;;;41.67;33.00;;;;;16.72;100.00;99776.16;6193822;22;45311;-86
2022/04/24 09:37:00;;;;;;;;;44.00;36.33;;;;;16.49;100.00;99768.75;6222460;22;44830;-86
2022/04/24 09:39:29;;;;;;;;;42.67;36.00;;;;;16.49;100.00;99771.41;6224659;22;44942;-85
2022/04/24 09:42:10;;;;;;;;;40.67;30.33;;;;;16.65;100.00;99781.31;6222060;22;45163;-85
2022/04/24 09:44:48;;;;;;;;;36.67;34.00;;;;;16.66;100.00;99781.16;6221182;22;45410;-84
2022/04/24 09:47:17;;;;;;;;;38.67;36.00;;;;;16.47;100.00;99778.78;6201720;22;44898;-84
2022/04/24 09:49:50;;;;;;;;;45.00;40.33;;;;;16.69;100.00;99775.47;6196168;22;46830;-85
2022/04/24 09:52:24;;;;;;;;;53.00;40.00;;;;;16.98;100.00;99776.88;6194669;22;44695;-86
2022/04/24 09:54:54;;;;;;;;;37.67;30.00;;;;;17.20;100.00;99776.16;6220246;22;44712;-86
2022/04/24 09:57:24;;;;;;;;;45.00;37.00;;;;;17.36;100.00;99786.06;6224105;22;44751;-84
2022/04/24 09:59:51;;;;;;;;;39.00;32.67;;;;;17.38;100.00;99785.91;6221093;22;45034;-86
2022/04/24 10:02:17;;;;;;;;;41.00;34.33;;;;;17.13;100.00;99788.59;6219818;22;44745;-85
2022/04/24 10:04:44;;;;;;;;;40.00;33.67;;;;;17.18;100.00;99798.84;6199605;22;44780;-84
2022/04/24 10:07:11;;;;;;;;;43.67;36.00;;;;;17.10;100.00;99805.03;6197917;22;44789;-86
2022/04/24 10:09:39;;;;;;;;;39.33;35.67;;;;;17.19;100.00;99806.72;6195866;22;46447;-85
2022/04/24 10:12:07;;;;;;;;;46.67;37.00;;;;;17.06;100.00;99792.94;6191051;22;44655;-84
2022/04/24 10:15:05;;;;;;;;;43.33;34.00;;;;;17.18;100.00;99799.66;6190768;22;45228;-86
2022/04/24 10:17:52;;;;;;;;;42.00;36.33;;;;;17.12;100.00;99797.66;6165714;22;44778;-85
2022/04/24 10:20:48;;;;;;;;;47.00;36.33;;;;;17.28;100.00;99802.19;6189071;22;46912;-86
2022/04/24 10:23:14;;;;;;;;;36.67;34.33;;;;;16.96;100.00;99806.53;6217986;22;44782;-85
2022/04/24 10:25:42;;;;;;;;;30.33;28.00;;;;;17.18;100.00;99809.56;6193048;22;45254;-85
2022/04/24 10:28:16;;;;;;;;;36.00;34.00;;;;;17.17;100.00;99840.09;6222037;22;45306;-84
2022/04/24 10:30:44;;;;;;;;;41.33;33.00;;;;;17.06;100.00;99808.22;6193899;22;46660;-85
2022/04/24 10:33:19;;;;;;;;;37.00;31.00;;;;;17.03;100.00;99825.50;6191360;22;44666;-85
2022/04/24 10:35:49;;;;;;;;;40.67;35.67;;;;;17.01;100.00;99819.44;6220246;22;44789;-86
2022/04/24 10:38:17;;;;;;;;;34.33;32.33;;;;;17.04;100.00;99824.50;6190217;22;45179;-86
2022/04/24 10:41:04;;;;;;;;;43.00;36.67;;;;;17.32;100.00;99824.16;6216645;22;45072;-85
2022/04/24 10:43:38;;;;;;;;;53.00;42.67;;;;;17.30;100.00;99829.69;6187022;22;44719;-87
2022/04/24 10:46:34;;;;;;;;;39.33;35.67;;;;;17.21;100.00;99831.56;6188169;22;45452;-87
2022/04/24 10:49:35;;;;;;;;;41.67;34.33;;;;;17.32;100.00;99829.53;6187869;22;45197;-86
2022/04/24 10:52:03;;;;;;;;;35.00;31.50;;;;;17.57;100.00;99831.19;6218085;22;45231;-87
2022/04/24 10:54:35;;;;;;;;;37.33;32.00;;;;;17.68;100.00;99829.97;6220904;22;44702;-86
2022/04/24 10:57:02;;;;;;;;;39.67;33.67;;;;;17.81;100.00;99829.50;6227970;22;45314;-86
2022/04/24 10:59:43;;;;;;;;;30.00;25.67;;;;;18.12;100.00;99838.44;6201733;22;45397;-85
2022/04/24 11:02:09;;;;;;;;;38.67;34.33;;;;;18.21;100.00;99850.84;6227698;22;45167;-86
2022/04/24 11:04:40;;;;;;;;;36.00;33.33;;;;;18.31;100.00;99852.50;6224970;22;44639;-87
2022/04/24 11:07:06;;;;;;;;;32.00;25.33;;;;;18.52;100.00;99842.00;6198806;22;45315;-87
2022/04/24 11:09:37;;;;;;;;;37.67;32.33;;;;;18.57;100.00;99852.25;6225998;22;44742;-86
2022/04/24 11:12:07;;;;;;;;;25.00;24.67;;;;;18.81;100.00;99832.44;6224659;22;45443;-85